createdAt,value
2022-11-06T00:01:13.734Z,12.13
2022-11-06T00:03:40.829Z,13.90
2022-11-06T00:06:30.654Z,12.95
2022-11-06T00:09:00.729Z,18.58
2022-11-06T00:11:27.639Z,16.05
2022-11-06T00:13:54.630Z,15.23
2022-11-06T00:16:21.697Z,12.18
2022-11-06T00:18:49.092Z,13.63
2022-11-06T00:21:24.885Z,15.55
2022-11-06T00:23:52.843Z,13.63
2022-11-06T00:26:23.321Z,11.20
2022-11-06T00:28:51.123Z,18.70
2022-11-06T00:31:21.217Z,10.15
2022-11-06T00:33:48.184Z,14.00
2022-11-06T00:36:17.742Z,12.82
2022-11-06T00:38:45.415Z,17.67
2022-11-06T00:41:15.289Z,15.60
2022-11-06T00:43:43.427Z,18.05
2022-11-06T00:46:13.868Z,20.88
2022-11-06T00:48:41.715Z,19.48
2022-11-06T00:51:22.032Z,20.20
2022-11-06T00:53:53.602Z,14.85
2022-11-06T00:56:20.936Z,18.67
2022-11-06T00:58:48.468Z,15.68
2022-11-06T01:01:20.761Z,21.08
2022-11-06T01:03:51.764Z,15.38
2022-11-06T01:06:21.531Z,15.98
2022-11-06T01:08:48.981Z,16.10
2022-11-06T01:11:19.722Z,16.27
2022-11-06T01:13:49.426Z,17.33
2022-11-06T01:16:16.545Z,17.50
2022-11-06T01:18:45.060Z,15.70
2022-11-06T01:21:15.740Z,23.90
2022-11-06T01:23:43.506Z,15.80
2022-11-06T01:26:12.098Z,15.07
2022-11-06T01:28:40.025Z,18.65
2022-11-06T01:31:09.475Z,18.65
2022-11-06T01:33:36.566Z,15.80
2022-11-06T01:36:03.758Z,14.68
2022-11-06T01:38:31.051Z,23.35
2022-11-06T01:40:57.842Z,21.15
2022-11-06T01:43:55.656Z,20.15
2022-11-06T01:46:25.172Z,25.65
2022-11-06T01:49:03.646Z,22.08
2022-11-06T01:51:34.333Z,20.13
2022-11-06T01:54:04.775Z,20.42
2022-11-06T01:56:31.895Z,16.88
2022-11-06T01:58:58.953Z,17.17
2022-11-06T02:01:25.877Z,18.42
2022-11-06T02:04:03.379Z,17.35
2022-11-06T02:06:31.424Z,15.07
2022-11-06T02:08:58.245Z,15.80
2022-11-06T02:11:25.156Z,17.42
2022-11-06T02:14:36.350Z,21.73
2022-11-06T02:17:14.198Z,22.15
2022-11-06T02:20:08.110Z,17.92
2022-11-06T02:22:58.825Z,20.80
2022-11-06T02:25:34.596Z,17.10
2022-11-06T02:28:08.536Z,17.13
2022-11-06T02:30:43.111Z,18.25
2022-11-06T02:33:16.718Z,19.27
2022-11-06T02:35:47.302Z,15.40
2022-11-06T02:38:18.345Z,15.80
2022-11-06T02:40:50.977Z,17.48
2022-11-06T02:43:22.047Z,19.67
2022-11-06T02:45:57.658Z,18.30
2022-11-06T02:48:30.162Z,15.65
2022-11-06T02:51:00.606Z,17.33
2022-11-06T02:53:30.231Z,26.75
2022-11-06T02:56:03.436Z,15.48
2022-11-06T02:58:48.777Z,17.05
2022-11-06T03:01:28.277Z,18.23
2022-11-06T03:03:59.543Z,20.55
2022-11-06T03:06:35.360Z,18.08
2022-11-06T03:09:12.320Z,17.08
2022-11-06T03:11:39.445Z,18.60
2022-11-06T03:14:25.027Z,17.42
2022-11-06T03:17:00.495Z,17.02
2022-11-06T03:19:29.486Z,19.33
2022-11-06T03:22:05.107Z,20.00
2022-11-06T03:24:42.744Z,19.55
2022-11-06T03:27:20.564Z,18.25
2022-11-06T03:29:52.122Z,16.55
2022-11-06T03:32:31.178Z,14.57
2022-11-06T03:35:07.366Z,19.98
2022-11-06T03:37:40.074Z,16.23
2022-11-06T03:40:11.768Z,20.38
2022-11-06T03:42:40.438Z,19.67
2022-11-06T03:45:13.219Z,15.38
2022-11-06T03:47:45.910Z,15.90
2022-11-06T03:50:26.237Z,16.25
2022-11-06T03:52:58.827Z,23.80
2022-11-06T03:55:31.743Z,15.75
2022-11-06T03:58:16.765Z,18.08
2022-11-06T04:00:44.866Z,17.50
2022-11-06T04:03:42.876Z,16.88
2022-11-06T04:06:32.345Z,21.08
2022-11-06T04:09:21.824Z,20.13
2022-11-06T04:12:08.225Z,18.23
2022-11-06T04:14:38.271Z,19.85
2022-11-06T04:17:09.569Z,13.43
2022-11-06T04:19:36.691Z,13.90
2022-11-06T04:22:21.415Z,17.90
2022-11-06T04:25:28.258Z,18.42
2022-11-06T04:30:22.907Z,12.18
2022-11-06T04:33:05.026Z,15.00
2022-11-06T04:35:32.356Z,17.45
2022-11-06T04:38:02.388Z,11.45
2022-11-06T04:40:51.971Z,15.63
2022-11-06T04:43:18.730Z,11.88
2022-11-06T04:45:49.870Z,20.90
2022-11-06T04:48:18.180Z,21.98
2022-11-06T04:50:52.452Z,15.18
2022-11-06T04:53:21.083Z,15.60
2022-11-06T04:55:54.983Z,15.82
2022-11-06T04:58:22.182Z,12.25
2022-11-06T05:00:50.894Z,12.55
2022-11-06T05:03:18.815Z,15.23
2022-11-06T05:05:45.647Z,13.18
2022-11-06T05:08:16.157Z,15.75
2022-11-06T05:10:44.161Z,17.27
2022-11-06T05:13:11.872Z,11.07
2022-11-06T05:15:38.777Z,14.85
2022-11-06T05:18:06.473Z,12.30
2022-11-06T05:20:33.731Z,13.25
2022-11-06T05:23:00.986Z,12.02
2022-11-06T05:25:37.093Z,17.45
2022-11-06T05:28:07.062Z,13.77
2022-11-06T05:30:37.434Z,11.65
2022-11-06T05:33:04.783Z,9.27
2022-11-06T05:35:31.589Z,16.02
2022-11-06T05:38:02.988Z,10.73
2022-11-06T05:40:30.050Z,12.23
2022-11-06T05:42:56.841Z,15.90
2022-11-06T05:45:23.670Z,10.85
2022-11-06T05:47:50.425Z,17.95
2022-11-06T05:50:17.411Z,15.07
2022-11-06T05:52:44.269Z,12.35
2022-11-06T05:55:14.658Z,9.02
2022-11-06T05:57:42.296Z,12.52
2022-11-06T06:00:10.628Z,9.73
2022-11-06T06:02:40.739Z,12.65
2022-11-06T06:05:08.422Z,11.50
2022-11-06T06:07:35.607Z,12.20
2022-11-06T06:10:02.571Z,12.80
2022-11-06T06:12:29.527Z,13.57
2022-11-06T06:14:56.373Z,14.88
2022-11-06T06:17:23.132Z,10.88
2022-11-06T06:19:49.978Z,8.98
2022-11-06T06:22:17.588Z,13.18
2022-11-06T06:24:44.552Z,15.07
2022-11-06T06:27:11.477Z,17.40
2022-11-06T06:29:38.586Z,14.00
2022-11-06T06:32:06.576Z,7.13
2022-11-06T06:34:33.533Z,9.43
2022-11-06T06:37:00.725Z,12.43
2022-11-06T06:39:27.548Z,11.75
2022-11-06T06:41:54.645Z,11.35
2022-11-06T06:44:21.524Z,11.32
2022-11-06T06:46:48.271Z,12.02
2022-11-06T06:49:15.071Z,14.90
2022-11-06T06:51:42.129Z,13.18
2022-11-06T06:54:09.052Z,17.08
2022-11-06T06:56:35.791Z,13.15
2022-11-06T06:59:02.597Z,13.43
2022-11-06T07:01:29.452Z,12.20
2022-11-06T07:04:01.342Z,9.48
2022-11-06T07:06:30.735Z,15.80
2022-11-06T07:08:57.500Z,8.07
2022-11-06T07:11:24.364Z,12.32
2022-11-06T07:13:51.156Z,10.73
2022-11-06T07:16:18.324Z,15.75
2022-11-06T07:18:45.085Z,10.35
2022-11-06T07:21:12.773Z,14.10
2022-11-06T07:23:39.945Z,12.15
2022-11-06T07:26:06.953Z,9.23
2022-11-06T07:28:34.424Z,10.80
2022-11-06T07:31:03.543Z,9.48
2022-11-06T07:33:30.480Z,10.77
2022-11-06T07:36:06.861Z,10.48
2022-11-06T07:38:35.066Z,10.10
2022-11-06T07:41:07.103Z,10.27
2022-11-06T07:43:34.231Z,9.57
2022-11-06T07:46:03.324Z,11.45
2022-11-06T07:48:31.145Z,13.25
2022-11-06T07:50:58.607Z,11.93
2022-11-06T07:53:25.485Z,12.30
2022-11-06T07:55:55.639Z,12.05
2022-11-06T07:58:24.250Z,15.73
2022-11-06T08:00:55.813Z,13.48
2022-11-06T08:03:24.369Z,10.85
2022-11-06T08:05:51.354Z,13.18
2022-11-06T08:08:18.669Z,10.65
2022-11-06T08:10:47.628Z,10.60
2022-11-06T08:13:16.484Z,11.27
2022-11-06T08:15:43.836Z,13.02
2022-11-06T08:18:11.914Z,14.85
2022-11-06T08:20:39.897Z,9.48
2022-11-06T08:23:10.504Z,9.80
2022-11-06T08:25:37.723Z,14.50
2022-11-06T08:28:04.564Z,12.02
2022-11-06T08:30:32.201Z,6.65
2022-11-06T08:33:05.522Z,11.65
2022-11-06T08:35:33.856Z,9.38
2022-11-06T08:38:00.843Z,12.18
2022-11-06T08:40:30.909Z,11.38
2022-11-06T08:43:03.257Z,13.57
2022-11-06T08:45:30.801Z,10.57
2022-11-06T08:48:02.262Z,14.93
2022-11-06T08:50:30.291Z,13.68
2022-11-06T08:52:58.316Z,12.45
2022-11-06T08:55:25.517Z,11.05
2022-11-06T08:57:54.810Z,14.15
2022-11-06T09:00:21.797Z,10.85
2022-11-06T09:02:48.722Z,10.52
2022-11-06T09:05:15.757Z,12.20
2022-11-06T09:07:42.514Z,11.30
2022-11-06T09:10:09.543Z,13.57
2022-11-06T09:12:36.326Z,13.85
2022-11-06T09:15:03.304Z,13.18
2022-11-06T09:17:30.057Z,15.02
2022-11-06T09:19:56.973Z,13.90
2022-11-06T09:22:23.762Z,10.65
2022-11-06T09:25:03.074Z,9.50
2022-11-06T09:27:30.459Z,16.10
2022-11-06T09:29:57.269Z,12.10
2022-11-06T09:32:24.986Z,13.70
2022-11-06T09:34:51.871Z,14.07
2022-11-06T09:37:18.798Z,14.73
2022-11-06T09:39:45.587Z,9.93
2022-11-06T09:42:38.424Z,12.45
2022-11-06T09:45:15.934Z,10.88
2022-11-06T09:47:47.818Z,8.95
2022-11-06T09:50:23.983Z,5.93
2022-11-06T09:52:55.611Z,9.95
2022-11-06T09:55:29.221Z,12.05
2022-11-06T09:57:59.836Z,11.05
2022-11-06T10:00:26.972Z,6.53
2022-11-06T10:03:03.270Z,8.20
2022-11-06T10:05:34.355Z,14.00
2022-11-06T10:08:05.125Z,8.60
2022-11-06T10:10:56.652Z,13.55
2022-11-06T10:13:45.308Z,7.30
2022-11-06T10:16:30.916Z,9.98
2022-11-06T10:19:12.133Z,6.28
2022-11-06T10:22:08.304Z,9.95
2022-11-06T10:24:51.409Z,9.10
2022-11-06T10:27:41.080Z,7.57
2022-11-06T10:30:13.056Z,11.05
2022-11-06T10:32:52.926Z,13.60
2022-11-06T10:35:40.357Z,13.45
2022-11-06T10:38:24.882Z,11.63
2022-11-06T10:40:54.085Z,8.30
2022-11-06T10:43:29.904Z,8.88
2022-11-06T10:46:06.930Z,10.30
2022-11-06T10:48:41.575Z,9.23
2022-11-06T10:51:25.758Z,13.07
2022-11-06T10:54:04.653Z,11.48
2022-11-06T10:56:54.593Z,13.68
2022-11-06T10:59:21.548Z,9.18
2022-11-06T11:01:49.520Z,18.42
2022-11-06T11:04:16.655Z,13.48
2022-11-06T11:06:43.515Z,11.30
2022-11-06T11:09:32.010Z,13.27
2022-11-06T11:12:00.492Z,12.30
2022-11-06T11:14:30.793Z,10.48
2022-11-06T11:17:07.926Z,14.65
2022-11-06T11:19:42.840Z,14.43
2022-11-06T11:22:21.705Z,16.65
2022-11-06T11:25:04.139Z,8.93
2022-11-06T11:27:46.330Z,8.98
2022-11-06T11:30:29.819Z,12.60
2022-11-06T11:33:00.284Z,8.25
2022-11-06T11:35:31.001Z,9.43
2022-11-06T11:38:14.819Z,12.35
2022-11-06T11:40:42.912Z,10.35
2022-11-06T11:43:21.026Z,10.90
2022-11-06T11:46:06.047Z,11.07
2022-11-06T11:48:51.486Z,10.13
2022-11-06T11:51:21.507Z,6.32
2022-11-06T11:53:48.432Z,12.15
2022-11-06T11:56:36.152Z,13.30
2022-11-06T11:59:06.203Z,11.18
2022-11-06T12:01:37.611Z,8.30
2022-11-06T12:04:14.543Z,10.43
2022-11-06T12:06:56.660Z,7.05
2022-11-06T12:09:24.849Z,6.88
2022-11-06T12:11:53.916Z,11.77
2022-11-06T12:14:36.931Z,13.10
2022-11-06T12:17:20.938Z,7.60
2022-11-06T12:19:55.360Z,7.60
2022-11-06T12:22:29.503Z,9.05
2022-11-06T12:25:24.118Z,13.23
2022-11-06T12:27:55.311Z,10.07
2022-11-06T12:30:23.577Z,7.93
2022-11-06T12:33:11.551Z,7.90
2022-11-06T12:36:03.831Z,11.07
2022-11-06T12:38:48.964Z,5.65
2022-11-06T12:41:19.729Z,9.50
2022-11-06T12:43:48.278Z,6.22
2022-11-06T12:46:45.035Z,8.77
2022-11-06T12:49:27.342Z,7.88
2022-11-06T12:52:09.242Z,9.63
2022-11-06T12:54:52.273Z,9.57
2022-11-06T12:57:50.371Z,6.88
2022-11-06T13:00:19.381Z,9.77
2022-11-06T13:02:58.458Z,9.27
2022-11-06T13:05:40.441Z,9.85
2022-11-06T13:08:31.138Z,9.10
2022-11-06T13:11:09.537Z,9.15
2022-11-06T13:13:39.556Z,7.57
2022-11-06T13:16:18.722Z,10.38
2022-11-06T13:18:56.154Z,11.35
2022-11-06T13:21:33.918Z,9.73
2022-11-06T13:24:13.439Z,7.05
2022-11-06T13:27:04.325Z,7.47
2022-11-06T13:29:31.530Z,11.45
2022-11-06T13:32:02.706Z,11.93
2022-11-06T13:34:33.727Z,10.02
2022-11-06T13:37:01.746Z,10.20
2022-11-06T13:39:41.315Z,9.85
2022-11-06T13:42:23.843Z,10.65
2022-11-06T13:44:51.673Z,8.98
2022-11-06T13:47:35.698Z,6.53
2022-11-06T13:50:20.540Z,7.25
2022-11-06T13:52:58.085Z,14.18
2022-11-06T13:55:39.222Z,10.90
2022-11-06T13:58:15.609Z,9.27
2022-11-06T14:01:07.108Z,11.35
2022-11-06T14:03:45.932Z,9.43
2022-11-06T14:06:21.911Z,8.00
2022-11-06T14:08:59.322Z,7.38
2022-11-06T14:11:29.618Z,6.90
2022-11-06T14:14:11.859Z,6.50
2022-11-06T14:16:41.077Z,7.50
2022-11-06T14:19:14.969Z,10.57
2022-11-06T14:22:15.196Z,8.10
2022-11-06T14:24:43.318Z,5.50
2022-11-06T14:27:35.939Z,6.15
2022-11-06T14:30:07.885Z,8.80
2022-11-06T14:32:36.458Z,9.52
2022-11-06T14:35:31.092Z,7.63
2022-11-06T14:38:10.052Z,8.38
2022-11-06T14:40:38.384Z,7.45
2022-11-06T14:43:23.994Z,7.35
2022-11-06T14:46:02.846Z,6.80
2022-11-06T14:48:36.304Z,5.63
2022-11-06T14:51:05.887Z,7.75
2022-11-06T14:53:40.107Z,8.80
2022-11-06T14:56:10.792Z,7.90
2022-11-06T14:59:08.918Z,8.75
2022-11-06T15:01:37.715Z,16.55
2022-11-06T15:04:19.203Z,13.05
2022-11-06T15:06:50.091Z,5.35
2022-11-06T15:09:23.065Z,8.10
2022-11-06T15:11:56.973Z,9.13
2022-11-06T15:14:24.206Z,8.07
2022-11-06T15:16:55.589Z,9.68
2022-11-06T15:19:26.950Z,12.23
2022-11-06T15:22:20.080Z,6.55
2022-11-06T15:24:57.466Z,7.20
2022-11-06T15:27:30.591Z,11.70
2022-11-06T15:30:00.260Z,10.35
2022-11-06T15:32:30.857Z,8.68
2022-11-06T15:35:08.347Z,9.00
2022-11-06T15:37:46.340Z,7.25
2022-11-06T15:40:24.121Z,10.02
2022-11-06T15:42:51.568Z,9.60
2022-11-06T15:45:18.299Z,6.03
2022-11-06T15:47:58.738Z,8.38
2022-11-06T15:50:36.524Z,6.25
2022-11-06T15:53:12.609Z,7.47
2022-11-06T15:55:51.194Z,5.90
2022-11-06T15:58:18.070Z,6.55
2022-11-06T16:00:45.582Z,5.55
2022-11-06T16:03:24.461Z,6.22
2022-11-06T16:05:52.874Z,8.98
2022-11-06T16:08:20.798Z,5.85
2022-11-06T16:10:50.928Z,5.80
2022-11-06T16:13:20.413Z,8.80
2022-11-06T16:16:33.625Z,6.88
2022-11-06T16:19:02.525Z,7.32
2022-11-06T16:21:32.388Z,11.80
2022-11-06T16:24:03.672Z,8.23
2022-11-06T16:26:35.522Z,5.05
2022-11-06T16:29:10.531Z,5.22
2022-11-06T16:31:38.001Z,5.10
2022-11-06T16:34:07.478Z,6.25
2022-11-06T16:37:00.105Z,7.38
2022-11-06T16:39:40.030Z,5.28
2022-11-06T16:42:23.016Z,6.07
2022-11-06T16:45:11.398Z,5.07
2022-11-06T16:47:38.268Z,9.35
2022-11-06T16:50:43.211Z,7.88
2022-11-06T16:53:10.822Z,7.22
2022-11-06T16:55:38.125Z,7.32
2022-11-06T16:58:05.228Z,7.20
2022-11-06T17:00:35.556Z,8.88
2022-11-06T17:03:21.081Z,8.45
2022-11-06T17:05:53.374Z,8.63
2022-11-06T17:08:37.678Z,8.75
2022-11-06T17:11:13.715Z,9.27
2022-11-06T17:13:42.842Z,11.52
2022-11-06T17:16:16.178Z,9.90
2022-11-06T17:18:44.197Z,9.60
2022-11-06T17:21:19.275Z,11.88
2022-11-06T17:23:47.275Z,9.73
2022-11-06T17:26:27.853Z,9.63
2022-11-06T17:28:56.788Z,8.82
2022-11-06T17:31:24.714Z,10.02
2022-11-06T17:33:52.468Z,11.48
2022-11-06T17:36:27.705Z,15.75
2022-11-06T17:38:56.531Z,14.50
2022-11-06T17:41:30.261Z,10.77
2022-11-06T17:43:59.040Z,12.95
2022-11-06T17:46:36.654Z,11.55
2022-11-06T17:49:03.979Z,10.95
2022-11-06T17:51:49.382Z,14.90
2022-11-06T17:54:22.211Z,11.20
2022-11-06T17:56:53.604Z,9.20
2022-11-06T17:59:21.699Z,28.17
2022-11-06T18:01:50.405Z,13.32
2022-11-06T18:04:19.077Z,11.68
2022-11-06T18:06:47.839Z,11.02
2022-11-06T18:09:15.820Z,10.73
2022-11-06T18:11:43.511Z,13.05
2022-11-06T18:14:11.214Z,9.27
2022-11-06T18:16:43.621Z,8.75
2022-11-06T18:19:14.797Z,9.05
2022-11-06T18:21:41.640Z,8.23
2022-11-06T18:24:08.579Z,9.43
2022-11-06T18:26:37.321Z,9.63
2022-11-06T18:29:05.453Z,8.52
2022-11-06T18:31:32.577Z,10.68
2022-11-06T18:33:59.351Z,11.18
2022-11-06T18:36:26.320Z,10.98
2022-11-06T18:38:53.133Z,6.75
2022-11-06T18:41:21.696Z,13.23
2022-11-06T18:43:49.000Z,7.68
2022-11-06T18:46:18.859Z,8.48
2022-11-06T18:48:46.128Z,12.20
2022-11-06T18:51:34.054Z,11.05
2022-11-06T18:54:05.686Z,10.80
2022-11-06T18:56:33.725Z,10.50
2022-11-06T18:59:00.533Z,10.93
2022-11-06T19:01:28.687Z,12.77
2022-11-06T19:03:55.954Z,9.23
2022-11-06T19:06:22.866Z,8.45
2022-11-06T19:08:49.761Z,8.95
2022-11-06T19:11:18.229Z,7.90
2022-11-06T19:13:48.430Z,9.98
2022-11-06T19:16:19.426Z,7.28
2022-11-06T19:21:30.157Z,9.50
2022-11-06T19:24:03.937Z,8.80
2022-11-06T19:26:33.269Z,8.55
2022-11-06T19:29:00.677Z,9.55
2022-11-06T19:31:29.407Z,14.35
2022-11-06T19:34:00.474Z,8.23
2022-11-06T19:36:28.483Z,8.45
2022-11-06T19:38:57.233Z,10.23
2022-11-06T19:41:25.833Z,7.80
2022-11-06T19:43:53.145Z,8.80
2022-11-06T19:46:25.696Z,7.15
2022-11-06T19:48:54.671Z,9.23
2022-11-06T19:51:21.578Z,12.25
2022-11-06T19:53:54.867Z,9.15
2022-11-06T19:56:22.006Z,8.90
2022-11-06T19:58:50.163Z,9.65
2022-11-06T20:01:17.256Z,7.28
2022-11-06T20:03:44.115Z,13.20
2022-11-06T20:06:12.271Z,12.25
2022-11-06T20:08:39.740Z,10.75
2022-11-06T20:11:12.497Z,13.15
2022-11-06T20:13:40.649Z,7.25
2022-11-06T20:16:09.912Z,10.50
2022-11-06T20:18:37.371Z,7.80
2022-11-06T20:21:07.711Z,12.18
2022-11-06T20:23:35.385Z,12.10
2022-11-06T20:26:02.892Z,11.50
2022-11-06T20:28:29.918Z,13.10
2022-11-06T20:30:56.935Z,10.77
2022-11-06T20:33:24.318Z,13.40
2022-11-06T20:35:51.168Z,13.10
2022-11-06T20:38:18.081Z,9.05
2022-11-06T20:40:45.362Z,9.38
2022-11-06T20:43:12.919Z,12.43
2022-11-06T20:45:40.081Z,10.38
2022-11-06T20:48:08.086Z,11.50
2022-11-06T20:50:35.055Z,11.43
2022-11-06T20:53:01.949Z,11.45
2022-11-06T20:55:29.095Z,10.13
2022-11-06T20:57:56.066Z,9.13
2022-11-06T21:00:22.980Z,11.57
2022-11-06T21:02:50.061Z,6.32
2022-11-06T21:05:17.216Z,8.57
2022-11-06T21:07:44.017Z,9.32
2022-11-06T21:10:12.231Z,8.85
2022-11-06T21:12:39.302Z,10.30
2022-11-06T21:15:06.648Z,6.75
2022-11-06T21:17:33.556Z,11.45
2022-11-06T21:20:00.364Z,8.85
2022-11-06T21:22:27.160Z,11.60
2022-11-06T21:24:53.921Z,9.90
2022-11-06T21:27:20.847Z,9.18
2022-11-06T21:29:47.629Z,13.27
2022-11-06T21:32:14.465Z,12.27
2022-11-06T21:34:41.317Z,7.30
2022-11-06T21:37:08.256Z,8.43
2022-11-06T21:39:36.649Z,9.00
2022-11-06T21:42:04.938Z,6.95
2022-11-06T21:44:31.944Z,13.10
2022-11-06T21:46:58.878Z,9.07
2022-11-06T21:49:25.707Z,10.30
2022-11-06T21:51:52.491Z,15.55
2022-11-06T21:54:38.013Z,9.68
2022-11-06T21:57:04.831Z,11.50
2022-11-06T21:59:31.590Z,14.88
2022-11-06T22:01:58.727Z,13.43
2022-11-06T22:04:25.769Z,14.98
2022-11-06T22:06:52.823Z,11.60
2022-11-06T22:09:25.390Z,10.02
2022-11-06T22:11:53.093Z,12.00
2022-11-06T22:14:19.868Z,12.10
2022-11-06T22:16:48.005Z,12.60
2022-11-06T22:19:15.979Z,15.90
2022-11-06T22:21:43.211Z,15.20
2022-11-06T22:24:12.628Z,12.07
2022-11-06T22:26:39.777Z,11.43
2022-11-06T22:29:11.238Z,10.18
2022-11-06T22:31:38.398Z,12.90
2022-11-06T22:34:05.200Z,14.18
2022-11-06T22:36:32.363Z,17.33
2022-11-06T22:39:00.803Z,14.25
2022-11-06T22:41:27.698Z,14.70
2022-11-06T22:43:58.861Z,13.02
2022-11-06T22:46:26.994Z,13.40
2022-11-06T22:48:54.566Z,15.82
2022-11-06T22:51:27.711Z,11.18
2022-11-06T22:53:55.159Z,15.88
2022-11-06T22:56:23.535Z,14.73
2022-11-06T22:59:03.380Z,16.90
2022-11-06T23:01:36.077Z,13.15
2022-11-06T23:04:15.244Z,13.82
2022-11-06T23:06:43.579Z,12.43
2022-11-06T23:09:10.752Z,25.42
2022-11-06T23:11:37.662Z,14.73
2022-11-06T23:14:08.530Z,17.08
2022-11-06T23:16:55.222Z,14.85
2022-11-06T23:21:49.183Z,15.07
2022-11-06T23:24:16.297Z,17.90
2022-11-06T23:26:44.546Z,14.20
2022-11-06T23:29:11.549Z,18.30
2022-11-06T23:31:38.525Z,16.13
2022-11-06T23:34:05.355Z,17.35
2022-11-06T23:36:32.131Z,15.88
2022-11-06T23:38:59.209Z,16.05
2022-11-06T23:41:45.392Z,12.50
2022-11-06T23:44:32.675Z,21.52
2022-11-06T23:47:00.087Z,17.17
2022-11-06T23:49:26.963Z,17.00
2022-11-06T23:51:53.979Z,16.00
2022-11-06T23:54:20.811Z,14.50
2022-11-06T23:56:47.654Z,12.10
2022-11-06T23:59:14.572Z,17.27
